sensor_id;sensor_type;location;lat;lon;timestamp;pressure;altitude;pressure_sealevel;temperature;humidity
76022;BME280;64718;52.124;6.226;2023-04-21T00:01:28;101597.72;;;7.45;100.00
76022;BME280;64718;52.124;6.226;2023-04-21T00:03:57;101598.56;;;7.45;100.00
76022;BME280;64718;52.124;6.226;2023-04-21T00:06:24;101590.81;;;7.44;100.00
76022;BME280;64718;52.124;6.226;2023-04-21T00:08:51;101591.66;;;7.46;100.00
76022;BME280;64718;52.124;6.226;2023-04-21T00:11:19;101585.59;;;7.47;100.00
76022;BME280;64718;52.124;6.226;2023-04-21T00:13:46;101576.97;;;7.46;100.00
76022;BME280;64718;52.124;6.226;2023-04-21T00:16:13;101572.69;;;7.45;100.00
76022;BME280;64718;52.124;6.226;2023-04-21T00:18:39;101575.28;;;7.45;100.00
76022;BME280;64718;52.124;6.226;2023-04-21T00:21:06;101569.25;;;7.45;100.00
76022;BME280;64718;52.124;6.226;2023-04-21T00:23:32;101562.38;;;7.42;100.00
76022;BME280;64718;52.124;6.226;2023-04-21T00:25:59;101559.78;;;7.42;100.00
76022;BME280;64718;52.124;6.226;2023-04-21T00:28:28;101551.94;;;7.47;100.00
76022;BME280;64718;52.124;6.226;2023-04-21T00:30:55;101542.56;;;7.41;100.00
76022;BME280;64718;52.124;6.226;2023-04-21T00:33:21;101539.09;;;7.42;100.00
76022;BME280;64718;52.124;6.226;2023-04-21T00:35:48;101541.72;;;7.41;100.00
76022;BME280;64718;52.124;6.226;2023-04-21T00:38:14;101538.19;;;7.45;100.00
76022;BME280;64718;52.124;6.226;2023-04-21T00:40:40;101527.81;;;7.46;100.00
76022;BME280;64718;52.124;6.226;2023-04-21T00:43:07;101527.78;;;7.48;100.00
76022;BME280;64718;52.124;6.226;2023-04-21T00:45:35;101535.56;;;7.46;100.00
76022;BME280;64718;52.124;6.226;2023-04-21T00:48:02;101529.47;;;7.49;100.00
76022;BME280;64718;52.124;6.226;2023-04-21T00:50:29;101529.53;;;7.46;100.00
76022;BME280;64718;52.124;6.226;2023-04-21T00:52:55;101521.63;;;7.55;100.00
76022;BME280;64718;52.124;6.226;2023-04-21T00:55:23;101517.38;;;7.51;100.00
76022;BME280;64718;52.124;6.226;2023-04-21T00:57:50;101522.41;;;7.58;100.00
76022;BME280;64718;52.124;6.226;2023-04-21T01:00:18;101516.50;;;7.52;100.00
76022;BME280;64718;52.124;6.226;2023-04-21T01:02:46;101504.41;;;7.54;100.00
76022;BME280;64718;52.124;6.226;2023-04-21T01:05:13;101514.78;;;7.52;100.00
76022;BME280;64718;52.124;6.226;2023-04-21T01:07:40;101511.34;;;7.52;100.00
76022;BME280;64718;52.124;6.226;2023-04-21T01:10:08;101505.28;;;7.51;100.00
76022;BME280;64718;52.124;6.226;2023-04-21T01:12:41;101506.13;;;7.53;100.00
76022;BME280;64718;52.124;6.226;2023-04-21T01:15:09;101510.44;;;7.53;100.00
76022;BME280;64718;52.124;6.226;2023-04-21T01:17:36;101509.56;;;7.54;100.00
76022;BME280;64718;52.124;6.226;2023-04-21T01:20:07;101503.50;;;7.55;100.00
76022;BME280;64718;52.124;6.226;2023-04-21T01:22:37;101501.81;;;7.54;100.00
76022;BME280;64718;52.124;6.226;2023-04-21T01:25:04;101506.06;;;7.56;100.00
76022;BME280;64718;52.124;6.226;2023-04-21T01:27:31;101506.09;;;7.55;100.00
76022;BME280;64718;52.124;6.226;2023-04-21T01:29:58;101498.41;;;7.52;100.00
76022;BME280;64718;52.124;6.226;2023-04-21T01:32:27;101506.06;;;7.56;100.00
76022;BME280;64718;52.124;6.226;2023-04-21T01:34:55;101504.22;;;7.63;100.00
76022;BME280;64718;52.124;6.226;2023-04-21T01:37:24;101499.91;;;7.62;100.00
76022;BME280;64718;52.124;6.226;2023-04-21T01:39:54;101500.84;;;7.58;100.00
76022;BME280;64718;52.124;6.226;2023-04-21T01:42:24;101500.00;;;7.57;100.00
76022;BME280;64718;52.124;6.226;2023-04-21T01:44:51;101501.72;;;7.58;100.00
76022;BME280;64718;52.124;6.226;2023-04-21T01:47:19;101493.91;;;7.60;100.00
76022;BME280;64718;52.124;6.226;2023-04-21T01:49:46;101492.16;;;7.62;100.00
76022;BME280;64718;52.124;6.226;2023-04-21T01:52:12;101496.41;;;7.65;100.00
76022;BME280;64718;52.124;6.226;2023-04-21T01:54:38;101495.44;;;7.70;100.00
76022;BME280;64718;52.124;6.226;2023-04-21T01:57:06;101489.41;;;7.70;100.00
76022;BME280;64718;52.124;6.226;2023-04-21T01:59:33;101485.88;;;7.74;100.00
76022;BME280;64718;52.124;6.226;2023-04-21T02:01:59;101487.50;;;7.78;100.00
76022;BME280;64718;52.124;6.226;2023-04-21T02:04:26;101489.28;;;7.76;100.00
76022;BME280;64718;52.124;6.226;2023-04-21T02:06:52;101482.41;;;7.75;100.00
76022;BME280;64718;52.124;6.226;2023-04-21T02:09:19;101480.63;;;7.77;100.00
76022;BME280;64718;52.124;6.226;2023-04-21T02:11:45;101481.41;;;7.80;100.00
76022;BME280;64718;52.124;6.226;2023-04-21T02:14:13;101485.81;;;7.77;100.00
76022;BME280;64718;52.124;6.226;2023-04-21T02:16:40;101493.56;;;7.77;100.00
76022;BME280;64718;52.124;6.226;2023-04-21T02:19:07;101491.91;;;7.74;100.00
76022;BME280;64718;52.124;6.226;2023-04-21T02:21:34;101489.25;;;7.77;100.00
76022;BME280;64718;52.124;6.226;2023-04-21T02:24:00;101496.19;;;7.75;100.00
76022;BME280;64718;52.124;6.226;2023-04-21T02:26:27;101487.56;;;7.75;100.00
76022;BME280;64718;52.124;6.226;2023-04-21T02:28:53;101491.91;;;7.74;100.00
76022;BME280;64718;52.124;6.226;2023-04-21T02:31:21;101497.09;;;7.73;100.00
76022;BME280;64718;52.124;6.226;2023-04-21T02:33:47;101497.06;;;7.74;100.00
76022;BME280;64718;52.124;6.226;2023-04-21T02:36:14;101506.63;;;7.72;100.00
76022;BME280;64718;52.124;6.226;2023-04-21T02:38:40;101513.47;;;7.75;100.00
76022;BME280;64718;52.124;6.226;2023-04-21T02:41:07;101512.59;;;7.76;100.00
76022;BME280;64718;52.124;6.226;2023-04-21T02:43:33;101513.56;;;7.70;100.00
76022;BME280;64718;52.124;6.226;2023-04-21T02:46:04;101508.31;;;7.73;100.00
76022;BME280;64718;52.124;6.226;2023-04-21T02:48:32;101505.00;;;7.67;100.00
76022;BME280;64718;52.124;6.226;2023-04-21T02:50:59;101515.41;;;7.64;100.00
76022;BME280;64718;52.124;6.226;2023-04-21T02:53:25;101513.66;;;7.66;100.00
76022;BME280;64718;52.124;6.226;2023-04-21T02:55:52;101502.41;;;7.67;100.00
76022;BME280;64718;52.124;6.226;2023-04-21T02:58:18;101492.03;;;7.68;100.00
76022;BME280;64718;52.124;6.226;2023-04-21T03:00:45;101486.06;;;7.65;100.00
76022;BME280;64718;52.124;6.226;2023-04-21T03:03:11;101491.28;;;7.61;100.00
76022;BME280;64718;52.124;6.226;2023-04-21T03:05:39;101482.66;;;7.63;100.00
76022;BME280;64718;52.124;6.226;2023-04-21T03:08:05;101484.34;;;7.64;100.00
76022;BME280;64718;52.124;6.226;2023-04-21T03:10:32;101491.22;;;7.65;100.00
76022;BME280;64718;52.124;6.226;2023-04-21T03:12:58;101483.44;;;7.66;100.00
76022;BME280;64718;52.124;6.226;2023-04-21T03:15:25;101477.47;;;7.63;100.00
76022;BME280;64718;52.124;6.226;2023-04-21T03:17:51;101465.34;;;7.65;100.00
76022;BME280;64718;52.124;6.226;2023-04-21T03:20:18;101464.53;;;7.63;100.00
76022;BME280;64718;52.124;6.226;2023-04-21T03:22:46;101478.41;;;7.58;100.00
76022;BME280;64718;52.124;6.226;2023-04-21T03:25:12;101491.44;;;7.54;100.00
76022;BME280;64718;52.124;6.226;2023-04-21T03:27:39;101491.38;;;7.57;100.00
76022;BME280;64718;52.124;6.226;2023-04-21T03:30:06;101488.00;;;7.53;100.00
76022;BME280;64718;52.124;6.226;2023-04-21T03:32:33;101485.31;;;7.58;100.00
76022;BME280;64718;52.124;6.226;2023-04-21T03:34:59;101489.59;;;7.60;100.00
76022;BME280;64718;52.124;6.226;2023-04-21T03:37:26;101471.44;;;7.62;100.00
76022;BME280;64718;52.124;6.226;2023-04-21T03:39:54;101465.38;;;7.63;100.00
76022;BME280;64718;52.124;6.226;2023-04-21T03:42:20;101469.72;;;7.61;100.00
76022;BME280;64718;52.124;6.226;2023-04-21T03:44:47;101475.78;;;7.60;100.00
76022;BME280;64718;52.124;6.226;2023-04-21T03:47:15;101474.91;;;7.61;100.00
76022;BME280;64718;52.124;6.226;2023-04-21T03:49:41;101483.53;;;7.61;100.00
76022;BME280;64718;52.124;6.226;2023-04-21T03:52:08;101480.06;;;7.63;100.00
76022;BME280;64718;52.124;6.226;2023-04-21T03:54:34;101483.50;;;7.63;100.00
76022;BME280;64718;52.124;6.226;2023-04-21T03:57:02;101467.13;;;7.63;100.00
76022;BME280;64718;52.124;6.226;2023-04-21T03:59:29;101466.25;;;7.62;100.00
76022;BME280;64718;52.124;6.226;2023-04-21T04:01:55;101462.84;;;7.60;100.00
76022;BME280;64718;52.124;6.226;2023-04-21T04:04:21;101459.44;;;7.58;100.00
76022;BME280;64718;52.124;6.226;2023-04-21T04:06:48;101462.03;;;7.58;100.00
76022;BME280;64718;52.124;6.226;2023-04-21T04:09:14;101469.84;;;7.56;100.00
76022;BME280;64718;52.124;6.226;2023-04-21T04:11:41;101473.31;;;7.55;100.00
76022;BME280;64718;52.124;6.226;2023-04-21T04:14:09;101463.81;;;7.56;100.00
76022;BME280;64718;52.124;6.226;2023-04-21T04:16:35;101469.00;;;7.54;100.00
76022;BME280;64718;52.124;6.226;2023-04-21T04:19:02;101465.56;;;7.54;100.00
76022;BME280;64718;52.124;6.226;2023-04-21T04:21:29;101468.13;;;7.55;100.00
76022;BME280;64718;52.124;6.226;2023-04-21T04:23:56;101463.81;;;7.56;100.00
76022;BME280;64718;52.124;6.226;2023-04-21T04:26:23;101463.81;;;7.56;100.00
76022;BME280;64718;52.124;6.226;2023-04-21T04:28:50;101462.84;;;7.60;100.00
76022;BME280;64718;52.124;6.226;2023-04-21T04:31:18;101466.28;;;7.60;100.00
76022;BME280;64718;52.124;6.226;2023-04-21T04:33:45;101466.25;;;7.62;100.00
76022;BME280;64718;52.124;6.226;2023-04-21T04:36:12;101450.69;;;7.64;100.00
76022;BME280;64718;52.124;6.226;2023-04-21T04:38:38;101453.28;;;7.64;100.00
76022;BME280;64718;52.124;6.226;2023-04-21T04:41:06;101467.94;;;7.65;100.00
76022;BME280;64718;52.124;6.226;2023-04-21T04:43:33;101473.97;;;7.65;100.00
76022;BME280;64718;52.124;6.226;2023-04-21T04:46:01;101475.66;;;7.66;100.00
76022;BME280;64718;52.124;6.226;2023-04-21T04:48:29;101469.59;;;7.67;100.00
76022;BME280;64718;52.124;6.226;2023-04-21T04:50:55;101463.53;;;7.68;100.00
76022;BME280;64718;52.124;6.226;2023-04-21T04:53:22;101466.09;;;7.70;100.00
76022;BME280;64718;52.124;6.226;2023-04-21T04:55:48;101468.72;;;7.68;100.00
76022;BME280;64718;52.124;6.226;2023-04-21T04:58:15;101462.66;;;7.69;100.00
76022;BME280;64718;52.124;6.226;2023-04-21T05:00:41;101453.16;;;7.70;100.00
76022;BME280;64718;52.124;6.226;2023-04-21T05:03:08;101438.47;;;7.70;100.00
76022;BME280;64718;52.124;6.226;2023-04-21T05:05:35;101473.03;;;7.69;100.00
76022;BME280;64718;52.124;6.226;2023-04-21T05:08:02;101479.06;;;7.70;100.00
76022;BME280;64718;52.124;6.226;2023-04-21T05:10:29;101477.25;;;7.73;100.00
76022;BME280;64718;52.124;6.226;2023-04-21T05:12:55;101472.81;;;7.78;100.00
76022;BME280;64718;52.124;6.226;2023-04-21T05:15:21;101458.13;;;7.79;100.00
76022;BME280;64718;52.124;6.226;2023-04-21T05:17:48;101473.69;;;7.79;100.00
76022;BME280;64718;52.124;6.226;2023-04-21T05:20:15;101469.31;;;7.81;100.00
76022;BME280;64718;52.124;6.226;2023-04-21T05:22:42;101470.09;;;7.84;100.00
76022;BME280;64718;52.124;6.226;2023-04-21T05:25:10;101470.84;;;7.89;100.00
76022;BME280;64718;52.124;6.226;2023-04-21T05:27:37;101481.16;;;7.92;100.00
76022;BME280;64718;52.124;6.226;2023-04-21T05:30:04;101481.84;;;8.01;100.00
76022;BME280;64718;52.124;6.226;2023-04-21T05:32:30;101487.81;;;8.04;100.00
76022;BME280;64718;52.124;6.226;2023-04-21T05:34:57;101490.25;;;8.12;100.00
76022;BME280;64718;52.124;6.226;2023-04-21T05:37:24;101485.91;;;8.14;100.00
76022;BME280;64718;52.124;6.226;2023-04-21T05:39:52;101492.72;;;8.18;100.00
76022;BME280;64718;52.124;6.226;2023-04-21T05:42:18;101490.00;;;8.22;100.00
76022;BME280;64718;52.124;6.226;2023-04-21T05:44:46;101494.31;;;8.23;100.00
76022;BME280;64718;52.124;6.226;2023-04-21T05:47:12;101489.91;;;8.27;100.00
76022;BME280;64718;52.124;6.226;2023-04-21T05:49:39;101488.13;;;8.29;100.00
76022;BME280;64718;52.124;6.226;2023-04-21T05:52:07;101496.69;;;8.33;100.00
76022;BME280;64718;52.124;6.226;2023-04-21T05:54:34;101486.31;;;8.34;100.00
76022;BME280;64718;52.124;6.226;2023-04-21T05:57:02;101480.22;;;8.37;100.00
76022;BME280;64718;52.124;6.226;2023-04-21T05:59:29;101485.31;;;8.40;100.00
76022;BME280;64718;52.124;6.226;2023-04-21T06:01:56;101487.81;;;8.44;100.00
76022;BME280;64718;52.124;6.226;2023-04-21T06:04:22;101492.94;;;8.47;100.00
76022;BME280;64718;52.124;6.226;2023-04-21T06:06:49;101486.75;;;8.53;100.00
76022;BME280;64718;52.124;6.226;2023-04-21T06:09:15;101480.66;;;8.54;100.00
76022;BME280;64718;52.124;6.226;2023-04-21T06:11:42;101473.66;;;8.57;100.00
76022;BME280;64718;52.124;6.226;2023-04-21T06:14:10;101469.34;;;8.58;100.00
76022;BME280;64718;52.124;6.226;2023-04-21T06:16:36;101471.94;;;8.58;100.00
76022;BME280;64718;52.124;6.226;2023-04-21T06:19:03;101471.00;;;8.61;100.00
76022;BME280;64718;52.124;6.226;2023-04-21T06:21:29;101471.88;;;8.60;100.00
76022;BME280;64718;52.124;6.226;2023-04-21T06:23:57;101476.16;;;8.62;100.00
76022;BME280;64718;52.124;6.226;2023-04-21T06:26:23;101470.88;;;8.65;100.00
76022;BME280;64718;52.124;6.226;2023-04-21T06:28:50;101478.63;;;8.68;100.00
76022;BME280;64718;52.124;6.226;2023-04-21T06:31:18;101474.25;;;8.70;100.00
76022;BME280;64718;52.124;6.226;2023-04-21T06:33:44;101471.63;;;8.72;100.00
76022;BME280;64718;52.124;6.226;2023-04-21T06:36:11;101475.94;;;8.71;100.00
76022;BME280;64718;52.124;6.226;2023-04-21T06:38:37;101483.72;;;8.71;100.00
76022;BME280;64718;52.124;6.226;2023-04-21T06:41:07;101486.25;;;8.74;100.00
76022;BME280;64718;52.124;6.226;2023-04-21T06:43:33;101476.63;;;8.79;100.00
76022;BME280;64718;52.124;6.226;2023-04-21T06:46:00;101473.91;;;8.84;100.00
76022;BME280;64718;52.124;6.226;2023-04-21T06:48:28;101465.31;;;8.82;100.00
76022;BME280;64718;52.124;6.226;2023-04-21T06:50:55;101470.47;;;8.83;100.00
76022;BME280;64718;52.124;6.226;2023-04-21T06:53:21;101471.28;;;8.85;100.00
76022;BME280;64718;52.124;6.226;2023-04-21T06:55:48;101463.28;;;8.93;100.00
76022;BME280;64718;52.124;6.226;2023-04-21T06:58:14;101464.78;;;9.02;100.00
76022;BME280;64718;52.124;6.226;2023-04-21T07:00:41;101470.66;;;9.08;100.00
76022;BME280;64718;52.124;6.226;2023-04-21T07:03:07;101473.19;;;9.11;100.00
76022;BME280;64718;52.124;6.226;2023-04-21T07:05:35;101470.59;;;9.11;100.00
76022;BME280;64718;52.124;6.226;2023-04-21T07:08:02;101472.22;;;9.15;100.00
76022;BME280;64718;52.124;6.226;2023-04-21T07:10:28;101474.69;;;9.20;100.00
76022;BME280;64718;52.124;6.226;2023-04-21T07:12:56;101472.03;;;9.22;100.00
76022;BME280;64718;52.124;6.226;2023-04-21T07:15:22;101477.28;;;9.20;100.00
76022;BME280;64718;52.124;6.226;2023-04-21T07:17:49;101473.06;;;9.16;100.00
76022;BME280;64718;52.124;6.226;2023-04-21T07:20:16;101473.94;;;9.15;100.00
76022;BME280;64718;52.124;6.226;2023-04-21T07:22:44;101473.94;;;9.15;100.00
76022;BME280;64718;52.124;6.226;2023-04-21T07:25:10;101464.38;;;9.17;100.00
76022;BME280;64718;52.124;6.226;2023-04-21T07:27:37;101472.16;;;9.17;100.00
76022;BME280;64718;52.124;6.226;2023-04-21T07:30:05;101477.28;;;9.20;100.00
76022;BME280;64718;52.124;6.226;2023-04-21T07:32:32;101481.34;;;9.30;100.00
76022;BME280;64718;52.124;6.226;2023-04-21T07:34:59;101482.13;;;9.34;100.00
76022;BME280;64718;52.124;6.226;2023-04-21T07:37:27;101482.97;;;9.34;100.00
76022;BME280;64718;52.124;6.226;2023-04-21T07:39:55;101475.28;;;9.31;100.00
76022;BME280;64718;52.124;6.226;2023-04-21T07:42:21;101470.03;;;9.33;100.00
76022;BME280;64718;52.124;6.226;2023-04-21T07:44:48;101470.84;;;9.35;100.00
76022;BME280;64718;52.124;6.226;2023-04-21T07:47:15;101479.53;;;9.34;100.00
76022;BME280;64718;52.124;6.226;2023-04-21T07:49:41;101475.09;;;9.37;100.00
76022;BME280;64718;52.124;6.226;2023-04-21T07:52:08;101469.88;;;9.39;100.00
76022;BME280;64718;52.124;6.226;2023-04-21T07:54:34;101471.63;;;9.38;100.00
76022;BME280;64718;52.124;6.226;2023-04-21T07:57:02;101466.41;;;9.38;100.00
76022;BME280;64718;52.124;6.226;2023-04-21T07:59:29;101468.97;;;9.40;100.00
76022;BME280;64718;52.124;6.226;2023-04-21T08:01:55;101472.47;;;9.39;100.00
76022;BME280;64718;52.124;6.226;2023-04-21T08:04:22;101467.22;;;9.40;100.00
76022;BME280;64718;52.124;6.226;2023-04-21T08:06:48;101465.41;;;9.44;100.00
76022;BME280;64718;52.124;6.226;2023-04-21T08:09:15;101466.16;;;9.47;100.00
76022;BME280;64718;52.124;6.226;2023-04-21T08:11:41;101468.63;;;9.52;100.00
76022;BME280;64718;52.124;6.226;2023-04-21T08:14:09;101466.78;;;9.56;100.00
76022;BME280;64718;52.124;6.226;2023-04-21T08:16:36;101460.75;;;9.55;100.00
76022;BME280;64718;52.124;6.226;2023-04-21T08:19:03;101468.41;;;9.60;100.00
76022;BME280;64718;52.124;6.226;2023-04-21T08:21:31;101470.88;;;9.64;100.00
76022;BME280;64718;52.124;6.226;2023-04-21T08:23:57;101466.50;;;9.66;100.00
76022;BME280;64718;52.124;6.226;2023-04-21T08:26:24;101463.66;;;9.74;100.00
76022;BME280;64718;52.124;6.226;2023-04-21T08:28:51;101460.00;;;9.81;100.00
76022;BME280;64718;52.124;6.226;2023-04-21T08:31:19;101460.50;;;9.94;100.00
76022;BME280;64718;52.124;6.226;2023-04-21T08:33:45;101468.91;;;10.02;100.00
76022;BME280;64718;52.124;6.226;2023-04-21T08:36:12;101463.69;;;10.03;100.00
76022;BME280;64718;52.124;6.226;2023-04-21T08:38:41;101466.94;;;10.10;100.00
76022;BME280;64718;52.124;6.226;2023-04-21T08:41:08;101470.19;;;10.17;100.00
76022;BME280;64718;52.124;6.226;2023-04-21T08:43:35;101464.84;;;10.23;100.00
76022;BME280;64718;52.124;6.226;2023-04-21T08:46:05;101453.91;;;10.39;100.00
76022;BME280;64718;52.124;6.226;2023-04-21T08:48:35;101441.03;;;10.63;100.00
76022;BME280;64718;52.124;6.226;2023-04-21T08:51:02;101451.81;;;10.77;100.00
76022;BME280;64718;52.124;6.226;2023-04-21T08:53:28;101468.69;;;10.65;100.00
76022;BME280;64718;52.124;6.226;2023-04-21T08:55:55;101470.09;;;10.49;100.00
76022;BME280;64718;52.124;6.226;2023-04-21T08:58:22;101474.81;;;10.36;100.00
76022;BME280;64718;52.124;6.226;2023-04-21T09:00:49;101463.84;;;10.27;100.00
76022;BME280;64718;52.124;6.226;2023-04-21T09:03:20;101463.50;;;10.37;100.00
76022;BME280;64718;52.124;6.226;2023-04-21T09:05:57;101466.66;;;10.49;100.00
76022;BME280;64718;52.124;6.226;2023-04-21T09:08:24;101465.41;;;10.60;100.00
76022;BME280;64718;52.124;6.226;2023-04-21T09:10:52;101463.78;;;10.56;100.00
76022;BME280;64718;52.124;6.226;2023-04-21T09:13:19;101470.41;;;10.66;100.00
76022;BME280;64718;52.124;6.226;2023-04-21T09:15:49;101481.44;;;10.73;100.00
76022;BME280;64718;52.124;6.226;2023-04-21T09:18:17;101471.53;;;10.84;100.00
76022;BME280;64718;52.124;6.226;2023-04-21T09:20:45;101473.06;;;11.16;100.00
76022;BME280;64718;52.124;6.226;2023-04-21T09:23:13;101461.59;;;11.45;100.00
76022;BME280;64718;52.124;6.226;2023-04-21T09:25:42;101453.78;;;11.45;100.00
76022;BME280;64718;52.124;6.226;2023-04-21T09:28:10;101459.09;;;11.67;100.00
76022;BME280;64718;52.124;6.226;2023-04-21T09:30:38;101453.44;;;11.79;100.00
76022;BME280;64718;52.124;6.226;2023-04-21T09:33:05;101451.47;;;12.08;100.00
76022;BME280;64718;52.124;6.226;2023-04-21T09:35:33;101459.72;;;11.97;100.00
76022;BME280;64718;52.124;6.226;2023-04-21T09:38:00;101464.19;;;11.93;100.00
76022;BME280;64718;52.124;6.226;2023-04-21T09:40:29;101458.00;;;11.96;100.00
76022;BME280;64718;52.124;6.226;2023-04-21T09:42:56;101460.13;;;12.08;100.00
76022;BME280;64718;52.124;6.226;2023-04-21T09:45:25;101459.28;;;12.08;100.00
76022;BME280;64718;52.124;6.226;2023-04-21T09:47:55;101467.47;;;11.98;100.00
76022;BME280;64718;52.124;6.226;2023-04-21T09:50:23;101464.00;;;11.98;100.00
76022;BME280;64718;52.124;6.226;2023-04-21T09:52:50;101462.72;;;11.86;100.00
76022;BME280;64718;52.124;6.226;2023-04-21T09:55:20;101461.31;;;11.78;100.00
76022;BME280;64718;52.124;6.226;2023-04-21T09:57:51;101451.03;;;11.73;100.00
76022;BME280;64718;52.124;6.226;2023-04-21T10:00:22;101458.66;;;11.79;100.00
76022;BME280;64718;52.124;6.226;2023-04-21T10:02:53;101460.22;;;11.83;100.00
76022;BME280;64718;52.124;6.226;2023-04-21T10:05:20;101452.84;;;11.94;100.00
76022;BME280;64718;52.124;6.226;2023-04-21T10:07:47;101448.84;;;12.08;100.00
76022;BME280;64718;52.124;6.226;2023-04-21T10:10:19;101454.25;;;12.03;100.00
76022;BME280;64718;52.124;6.226;2023-04-21T10:12:47;101449.97;;;12.24;100.00
76022;BME280;64718;52.124;6.226;2023-04-21T10:15:30;101443.19;;;12.42;100.00
76022;BME280;64718;52.124;6.226;2023-04-21T10:18:11;101445.47;;;12.49;100.00
76022;BME280;64718;52.124;6.226;2023-04-21T10:20:50;101445.66;;;12.45;100.00
76022;BME280;64718;52.124;6.226;2023-04-21T10:23:26;101439.16;;;12.55;100.00
76022;BME280;64718;52.124;6.226;2023-04-21T10:25:53;101435.75;;;12.53;100.00
76022;BME280;64718;52.124;6.226;2023-04-21T10:28:19;101437.38;;;12.55;100.00
76022;BME280;64718;52.124;6.226;2023-04-21T10:30:47;101429.19;;;12.64;100.00
76022;BME280;64718;52.124;6.226;2023-04-21T10:33:16;101424.00;;;12.85;100.00
76022;BME280;64718;52.124;6.226;2023-04-21T10:36:01;101423.72;;;12.91;100.00
76022;BME280;64718;52.124;6.226;2023-04-21T10:38:32;101411.91;;;13.03;100.00
76022;BME280;64718;52.124;6.226;2023-04-21T10:41:24;101406.81;;;13.20;100.00
76022;BME280;64718;52.124;6.226;2023-04-21T10:43:51;101399.97;;;13.17;100.00
76022;BME280;64718;52.124;6.226;2023-04-21T10:46:36;101405.38;;;13.33;100.00
76022;BME280;64718;52.124;6.226;2023-04-21T10:49:07;101402.84;;;13.32;100.00
76022;BME280;64718;52.124;6.226;2023-04-21T10:52:05;101404.09;;;13.42;100.00
76022;BME280;64718;52.124;6.226;2023-04-21T10:54:37;101413.44;;;13.47;100.00
76022;BME280;64718;52.124;6.226;2023-04-21T10:57:07;101401.72;;;13.56;99.95
76022;BME280;64718;52.124;6.226;2023-04-21T10:59:35;101405.94;;;13.58;100.00
76022;BME280;64718;52.124;6.226;2023-04-21T11:02:04;101393.38;;;13.48;100.00
76022;BME280;64718;52.124;6.226;2023-04-21T11:04:30;101397.97;;;13.43;100.00
76022;BME280;64718;52.124;6.226;2023-04-21T11:07:07;101399.38;;;13.31;100.00
76022;BME280;64718;52.124;6.226;2023-04-21T11:09:34;101398.69;;;13.26;100.00
76022;BME280;64718;52.124;6.226;2023-04-21T11:12:02;101383.53;;;13.14;100.00
76022;BME280;64718;52.124;6.226;2023-04-21T11:14:32;101386.81;;;13.19;100.00
76022;BME280;64718;52.124;6.226;2023-04-21T11:17:00;101379.06;;;13.17;100.00
76022;BME280;64718;52.124;6.226;2023-04-21T11:19:30;101384.66;;;13.28;100.00
76022;BME280;64718;52.124;6.226;2023-04-21T11:21:57;101380.34;;;13.27;100.00
76022;BME280;64718;52.124;6.226;2023-04-21T11:24:23;101377.09;;;13.22;100.00
76022;BME280;64718;52.124;6.226;2023-04-21T11:26:50;101380.00;;;13.15;100.00
76022;BME280;64718;52.124;6.226;2023-04-21T11:29:17;101374.16;;;13.10;100.00
76022;BME280;64718;52.124;6.226;2023-04-21T11:31:44;101374.78;;;13.15;100.00
76022;BME280;64718;52.124;6.226;2023-04-21T11:34:13;101370.47;;;13.14;100.00
76022;BME280;64718;52.124;6.226;2023-04-21T11:36:43;101367.88;;;13.14;100.00
76022;BME280;64718;52.124;6.226;2023-04-21T11:39:11;101368.13;;;13.28;100.00
76022;BME280;64718;52.124;6.226;2023-04-21T11:41:39;101352.78;;;13.41;100.00
76022;BME280;64718;52.124;6.226;2023-04-21T11:44:06;101348.53;;;13.57;100.00
76022;BME280;64718;52.124;6.226;2023-04-21T11:46:32;101338.19;;;13.73;100.00
76022;BME280;64718;52.124;6.226;2023-04-21T11:49:01;101338.66;;;13.81;100.00
76022;BME280;64718;52.124;6.226;2023-04-21T11:51:32;101333.94;;;13.70;100.00
76022;BME280;64718;52.124;6.226;2023-04-21T11:54:00;101342.28;;;13.59;100.00
76022;BME280;64718;52.124;6.226;2023-04-21T11:56:27;101341.53;;;13.57;100.00
76022;BME280;64718;52.124;6.226;2023-04-21T11:58:54;101339.84;;;13.56;100.00
76022;BME280;64718;52.124;6.226;2023-04-21T12:01:21;101345.69;;;13.43;100.00
76022;BME280;64718;52.124;6.226;2023-04-21T12:03:52;101343.19;;;13.21;100.00
76022;BME280;64718;52.124;6.226;2023-04-21T12:06:22;101343.97;;;13.23;100.00
76022;BME280;64718;52.124;6.226;2023-04-21T12:08:54;101338.78;;;13.42;100.00
76022;BME280;64718;52.124;6.226;2023-04-21T12:11:22;101337.50;;;13.86;100.00
76022;BME280;64718;52.124;6.226;2023-04-21T12:13:49;101330.09;;;14.49;100.00
76022;BME280;64718;52.124;6.226;2023-04-21T12:16:15;101328.38;;;14.99;98.03
76022;BME280;64718;52.124;6.226;2023-04-21T12:18:42;101323.75;;;15.04;93.76
76022;BME280;64718;52.124;6.226;2023-04-21T12:21:08;101315.09;;;15.02;91.72
76022;BME280;64718;52.124;6.226;2023-04-21T12:23:39;101313.47;;;14.83;90.04
76022;BME280;64718;52.124;6.226;2023-04-21T12:26:06;101307.50;;;14.97;90.22
76022;BME280;64718;52.124;6.226;2023-04-21T12:28:34;101312.06;;;14.94;88.23
76022;BME280;64718;52.124;6.226;2023-04-21T12:31:00;101298.63;;;15.00;87.77
76022;BME280;64718;52.124;6.226;2023-04-21T12:33:27;101300.69;;;15.10;89.67
76022;BME280;64718;52.124;6.226;2023-04-21T12:35:53;101304.28;;;14.92;88.26
76022;BME280;64718;52.124;6.226;2023-04-21T12:38:20;101300.94;;;15.06;89.59
76022;BME280;64718;52.124;6.226;2023-04-21T12:40:47;101291.75;;;15.14;87.78
76022;BME280;64718;52.124;6.226;2023-04-21T12:43:13;101286.31;;;15.17;88.07
76022;BME280;64718;52.124;6.226;2023-04-21T12:45:41;101287.75;;;15.07;89.03
76022;BME280;64718;52.124;6.226;2023-04-21T12:48:08;101285.41;;;15.18;88.04
76022;BME280;64718;52.124;6.226;2023-04-21T12:50:34;101274.56;;;15.40;88.66